createdAt,value
2018-09-15T00:01:46.199Z,18.50
2018-09-15T00:04:14.659Z,18.40
2018-09-15T00:06:43.160Z,18.40
2018-09-15T00:09:11.641Z,18.40
2018-09-15T00:11:40.141Z,18.40
2018-09-15T00:14:08.637Z,18.40
2018-09-15T00:16:37.165Z,18.40
2018-09-15T00:19:05.881Z,18.30
2018-09-15T00:21:34.392Z,18.30
2018-09-15T00:24:02.873Z,18.30
2018-09-15T00:26:31.398Z,18.20
2018-09-15T00:28:59.894Z,18.20
2018-09-15T00:31:28.417Z,18.30
2018-09-15T00:33:56.880Z,18.30
2018-09-15T00:36:25.378Z,18.20
2018-09-15T00:38:53.902Z,18.20
2018-09-15T00:41:22.430Z,18.20
2018-09-15T00:43:50.929Z,18.20
2018-09-15T00:46:19.457Z,18.20
2018-09-15T00:48:47.968Z,18.20
2018-09-15T00:51:16.465Z,18.20
2018-09-15T00:53:44.957Z,18.20
2018-09-15T00:56:13.468Z,18.20
2018-09-15T00:58:42.036Z,18.20
2018-09-15T01:01:10.533Z,18.20
2018-09-15T01:03:39.180Z,18.20
2018-09-15T01:06:07.725Z,18.10
2018-09-15T01:08:36.301Z,18.10
2018-09-15T01:11:04.890Z,18.10
2018-09-15T01:13:33.400Z,18.10
2018-09-15T01:16:01.946Z,18.10
2018-09-15T01:18:30.437Z,18.10
2018-09-15T01:20:58.936Z,18.10
2018-09-15T01:23:27.425Z,18.00
2018-09-15T01:25:55.925Z,18.00
2018-09-15T01:28:24.384Z,18.00
2018-09-15T01:30:52.880Z,17.90
2018-09-15T01:33:21.349Z,17.90
2018-09-15T01:35:49.837Z,17.90
2018-09-15T01:38:18.328Z,17.90
2018-09-15T01:40:46.840Z,17.80
2018-09-15T01:43:15.319Z,17.80
2018-09-15T01:45:43.821Z,17.80
2018-09-15T01:48:12.363Z,17.70
2018-09-15T01:50:40.849Z,17.70
2018-09-15T01:53:09.344Z,17.60
2018-09-15T01:55:37.822Z,17.60
2018-09-15T01:58:06.349Z,17.50
2018-09-15T02:00:34.820Z,17.40
2018-09-15T02:03:03.610Z,17.40
2018-09-15T02:05:32.076Z,17.40
2018-09-15T02:08:00.576Z,17.30
2018-09-15T02:10:29.060Z,17.30
2018-09-15T02:12:57.561Z,17.20
2018-09-15T02:15:26.084Z,17.20
2018-09-15T02:17:54.557Z,17.10
2018-09-15T02:20:23.064Z,17.10
2018-09-15T02:22:51.566Z,17.10
2018-09-15T02:25:20.056Z,17.00
2018-09-15T02:27:48.707Z,17.00
2018-09-15T02:30:17.184Z,17.00
2018-09-15T02:32:45.680Z,16.90
2018-09-15T02:35:14.144Z,16.90
2018-09-15T02:37:43.673Z,16.90
2018-09-15T02:40:12.172Z,16.90
2018-09-15T02:42:40.692Z,16.90
2018-09-15T02:45:09.193Z,16.90
2018-09-15T02:47:37.656Z,16.90
2018-09-15T02:50:07.345Z,16.90
2018-09-15T02:52:35.815Z,16.90
2018-09-15T02:55:04.503Z,16.90
2018-09-15T02:57:34.080Z,16.90
2018-09-15T03:00:02.592Z,16.90
2018-09-15T03:02:32.118Z,16.80
2018-09-15T03:05:00.637Z,16.80
2018-09-15T03:07:29.110Z,16.80
2018-09-15T03:09:57.559Z,16.70
2018-09-15T03:12:26.024Z,16.70
2018-09-15T03:14:54.483Z,16.70
2018-09-15T03:17:22.923Z,16.70
2018-09-15T03:19:51.667Z,16.60
2018-09-15T03:22:20.180Z,16.60
2018-09-15T03:24:48.656Z,16.60
2018-09-15T03:27:17.119Z,16.50
2018-09-15T03:29:45.572Z,16.50
2018-09-15T03:32:14.047Z,16.50
2018-09-15T03:34:42.495Z,16.40
2018-09-15T03:37:10.955Z,16.40
2018-09-15T03:39:39.397Z,16.30
2018-09-15T03:42:07.876Z,16.30
2018-09-15T03:44:36.324Z,16.30
2018-09-15T03:47:04.772Z,16.20
2018-09-15T03:49:33.234Z,16.20
2018-09-15T03:52:01.695Z,16.20
2018-09-15T03:54:30.183Z,16.20
2018-09-15T03:56:58.636Z,16.10
2018-09-15T03:59:27.083Z,16.00
2018-09-15T04:01:55.564Z,16.00
2018-09-15T04:04:24.021Z,16.00
2018-09-15T04:06:52.520Z,15.90
2018-09-15T04:09:20.971Z,15.90
2018-09-15T04:11:49.420Z,15.90
2018-09-15T04:14:17.887Z,15.90
2018-09-15T04:16:46.351Z,15.80
2018-09-15T04:19:14.815Z,15.80
2018-09-15T04:21:43.264Z,15.80
2018-09-15T04:24:11.747Z,15.70
2018-09-15T04:26:40.188Z,15.60
2018-09-15T04:29:08.655Z,15.60
2018-09-15T04:31:37.139Z,15.60
2018-09-15T04:34:05.603Z,15.60
2018-09-15T04:36:34.076Z,15.60
2018-09-15T04:39:02.580Z,15.60
2018-09-15T04:41:31.077Z,15.50
2018-09-15T04:43:59.534Z,15.50
2018-09-15T04:46:28.021Z,15.40
2018-09-15T04:48:56.471Z,15.40
2018-09-15T04:51:24.939Z,15.40
2018-09-15T04:53:53.392Z,15.40
2018-09-15T04:56:21.860Z,15.40
2018-09-15T04:58:50.417Z,15.40
2018-09-15T05:01:18.796Z,15.40
2018-09-15T05:03:47.295Z,15.30
2018-09-15T05:06:15.740Z,15.30
2018-09-15T05:08:44.207Z,15.30
2018-09-15T05:11:12.679Z,15.30
2018-09-15T05:13:41.158Z,15.30
2018-09-15T05:16:09.608Z,15.30
2018-09-15T05:18:38.080Z,15.30
2018-09-15T05:21:06.548Z,15.30
2018-09-15T05:23:34.992Z,15.30
2018-09-15T05:26:03.476Z,15.30
2018-09-15T05:28:32.812Z,15.30
2018-09-15T05:31:01.373Z,15.20
2018-09-15T05:33:29.945Z,15.30
2018-09-15T05:35:58.602Z,15.20
2018-09-15T05:38:27.211Z,15.20
2018-09-15T05:40:55.757Z,15.20
2018-09-15T05:43:24.246Z,15.20
2018-09-15T05:45:52.699Z,15.20
2018-09-15T05:48:21.140Z,15.20
2018-09-15T05:50:49.645Z,15.20
2018-09-15T05:53:18.100Z,15.20
2018-09-15T05:55:46.579Z,15.20
2018-09-15T05:58:15.059Z,15.20
2018-09-15T06:00:43.901Z,15.20
2018-09-15T06:03:12.356Z,15.20
2018-09-15T06:05:40.812Z,15.20
2018-09-15T06:08:09.296Z,15.30
2018-09-15T06:10:37.772Z,15.30
2018-09-15T06:13:06.276Z,15.30
2018-09-15T06:15:34.735Z,15.30
2018-09-15T06:18:03.243Z,15.30
2018-09-15T06:20:32.143Z,15.30
2018-09-15T06:23:01.132Z,15.30
2018-09-15T06:25:29.639Z,15.30
2018-09-15T06:27:58.104Z,15.30
2018-09-15T06:30:26.591Z,15.30
2018-09-15T06:32:55.040Z,15.30
2018-09-15T06:35:23.593Z,15.40
2018-09-15T06:37:52.068Z,15.40
2018-09-15T06:40:20.560Z,15.50
2018-09-15T06:42:49.016Z,15.50
2018-09-15T06:45:17.519Z,15.60
2018-09-15T06:47:45.975Z,15.60
2018-09-15T06:50:14.436Z,15.70
2018-09-15T06:52:42.932Z,15.70
2018-09-15T06:55:11.398Z,15.70
2018-09-15T06:57:39.896Z,15.80
2018-09-15T07:00:08.355Z,15.80
2018-09-15T07:02:36.808Z,15.80
2018-09-15T07:05:05.342Z,15.90
2018-09-15T07:07:33.802Z,16.00
2018-09-15T07:10:02.276Z,16.00
2018-09-15T07:12:30.752Z,16.00
2018-09-15T07:14:59.215Z,16.10
2018-09-15T07:17:27.721Z,16.20
2018-09-15T07:19:56.197Z,16.20
2018-09-15T07:22:24.671Z,16.20
2018-09-15T07:24:53.157Z,16.30
2018-09-15T07:27:21.615Z,16.40
2018-09-15T07:29:50.068Z,16.40
2018-09-15T07:32:18.548Z,16.50
2018-09-15T07:34:47.063Z,16.50
2018-09-15T07:37:15.499Z,16.60
2018-09-15T07:39:43.976Z,16.70
2018-09-15T07:42:12.447Z,16.70
2018-09-15T07:44:40.896Z,16.80
2018-09-15T07:47:09.373Z,16.90
2018-09-15T07:49:37.815Z,16.90
2018-09-15T07:52:06.335Z,17.00
2018-09-15T07:54:34.786Z,17.10
2018-09-15T07:57:03.231Z,17.20
2018-09-15T07:59:31.708Z,17.30
2018-09-15T08:02:00.235Z,17.30
2018-09-15T08:04:28.643Z,17.30
2018-09-15T08:06:57.087Z,17.40
2018-09-15T08:09:25.559Z,17.50
2018-09-15T08:11:54.024Z,17.50
2018-09-15T08:14:22.503Z,17.60
2018-09-15T08:16:50.947Z,17.70
2018-09-15T08:19:19.407Z,17.70
2018-09-15T08:21:47.891Z,17.80
2018-09-15T08:24:16.360Z,17.80
2018-09-15T08:26:44.808Z,17.90
2018-09-15T08:29:13.255Z,17.90
2018-09-15T08:31:41.723Z,18.00
2018-09-15T08:34:10.168Z,18.10
2018-09-15T08:36:38.640Z,18.20
2018-09-15T08:39:08.290Z,18.20
2018-09-15T08:41:36.752Z,18.20
2018-09-15T08:44:05.226Z,18.30
2018-09-15T08:46:33.687Z,18.40
2018-09-15T08:49:02.160Z,18.40
2018-09-15T08:51:30.752Z,18.50
2018-09-15T08:53:59.213Z,18.50
2018-09-15T08:56:27.664Z,18.50
2018-09-15T08:58:56.119Z,18.40
2018-09-15T09:01:24.584Z,18.40
2018-09-15T09:03:53.047Z,18.60
2018-09-15T09:06:21.520Z,18.70
2018-09-15T09:08:49.983Z,19.00
2018-09-15T09:11:18.435Z,19.20
2018-09-15T09:13:46.990Z,19.60
2018-09-15T09:16:15.455Z,19.90
2018-09-15T09:18:44.103Z,20.30
2018-09-15T09:21:12.871Z,20.70
2018-09-15T09:23:41.351Z,21.10
2018-09-15T09:26:09.850Z,21.60
2018-09-15T09:28:38.339Z,22.40
2018-09-15T09:31:06.847Z,24.20
2018-09-15T09:33:35.312Z,26.00
2018-09-15T09:36:03.780Z,27.40
2018-09-15T09:38:32.271Z,28.80
2018-09-15T09:41:00.747Z,30.80
2018-09-15T09:43:29.227Z,32.00
2018-09-15T09:45:57.695Z,31.90
2018-09-15T09:48:26.180Z,30.90
2018-09-15T09:50:54.615Z,30.00
2018-09-15T09:53:23.088Z,29.90
2018-09-15T09:55:51.532Z,28.90
2018-09-15T09:58:20.033Z,27.40
2018-09-15T10:00:53.835Z,26.90
2018-09-15T10:03:22.276Z,26.50
2018-09-15T10:05:50.891Z,26.60
2018-09-15T10:08:19.351Z,27.20
2018-09-15T10:10:47.836Z,27.90
2018-09-15T10:13:16.625Z,29.20
2018-09-15T10:15:45.415Z,29.10
2018-09-15T10:18:13.831Z,30.90
2018-09-15T10:20:42.319Z,32.40
2018-09-15T10:23:10.775Z,31.00
2018-09-15T10:25:39.259Z,30.10
2018-09-15T10:28:07.715Z,29.20
2018-09-15T10:30:36.184Z,29.00
2018-09-15T10:33:04.663Z,27.60
2018-09-15T10:35:33.119Z,26.10
2018-09-15T10:38:01.593Z,25.60
2018-09-15T10:40:30.098Z,25.80
2018-09-15T10:42:58.568Z,25.20
2018-09-15T10:45:27.015Z,24.80
2018-09-15T10:47:55.492Z,24.30
2018-09-15T10:50:23.952Z,24.00
2018-09-15T10:52:52.403Z,23.70
2018-09-15T10:55:20.883Z,23.20
2018-09-15T10:57:49.363Z,23.10
2018-09-15T11:00:17.861Z,23.00
2018-09-15T11:02:46.308Z,22.90
2018-09-15T11:05:14.791Z,22.90
2018-09-15T11:07:43.235Z,23.00
2018-09-15T11:10:11.715Z,23.00
2018-09-15T11:12:40.215Z,22.80
2018-09-15T11:15:08.675Z,23.00
2018-09-15T11:17:37.136Z,24.20
2018-09-15T11:20:05.871Z,25.90
2018-09-15T11:22:34.368Z,28.70
2018-09-15T11:25:02.812Z,30.50
2018-09-15T11:27:31.279Z,32.90
2018-09-15T11:29:59.723Z,35.20
2018-09-15T11:32:28.193Z,35.30
2018-09-15T11:34:56.640Z,34.80
2018-09-15T11:37:25.104Z,34.90
2018-09-15T11:39:53.579Z,35.40
2018-09-15T11:42:22.046Z,33.80
2018-09-15T11:44:50.497Z,32.50
2018-09-15T11:47:19.035Z,31.30
2018-09-15T11:49:47.595Z,30.60
2018-09-15T11:52:16.061Z,30.60
2018-09-15T11:54:44.588Z,30.80
2018-09-15T11:57:13.056Z,30.50
2018-09-15T11:59:41.568Z,31.20
2018-09-15T12:02:10.130Z,30.90
2018-09-15T12:04:38.743Z,31.10
2018-09-15T12:07:07.383Z,30.90
2018-09-15T12:09:35.856Z,31.70
2018-09-15T12:12:04.336Z,31.20
2018-09-15T12:14:32.808Z,32.70
2018-09-15T12:17:01.260Z,33.30
2018-09-15T12:19:29.744Z,33.60
2018-09-15T12:21:58.187Z,33.20
2018-09-15T12:24:26.623Z,33.50
2018-09-15T12:26:55.083Z,32.90
2018-09-15T12:29:23.532Z,33.80
2018-09-15T12:31:52.003Z,33.30
2018-09-15T12:34:20.437Z,33.50
2018-09-15T12:36:48.899Z,33.70
2018-09-15T12:39:17.365Z,34.60
2018-09-15T12:41:45.831Z,34.20
2018-09-15T12:44:14.271Z,33.10
2018-09-15T12:46:42.724Z,31.50
2018-09-15T12:49:11.203Z,30.50
2018-09-15T12:51:39.652Z,29.80
2018-09-15T12:54:08.103Z,29.70
2018-09-15T12:56:36.551Z,30.00
2018-09-15T12:59:05.051Z,29.80
2018-09-15T13:01:33.500Z,30.00
2018-09-15T13:04:01.974Z,30.40
2018-09-15T13:06:30.446Z,31.00
2018-09-15T13:08:58.919Z,31.90
2018-09-15T13:11:27.371Z,32.60
2018-09-15T13:13:55.836Z,32.80
2018-09-15T13:16:24.300Z,32.70
2018-09-15T13:18:52.779Z,33.10
2018-09-15T13:21:21.267Z,32.70
2018-09-15T13:23:49.780Z,32.50
2018-09-15T13:26:18.217Z,31.80
2018-09-15T13:28:46.743Z,31.20
2018-09-15T13:31:15.224Z,30.40
2018-09-15T13:33:43.676Z,29.70
2018-09-15T13:36:12.143Z,30.00
2018-09-15T13:38:40.603Z,31.20
2018-09-15T13:41:09.081Z,31.10
2018-09-15T13:43:37.532Z,30.00
2018-09-15T13:46:06.207Z,29.00
2018-09-15T13:48:34.745Z,28.20
2018-09-15T13:51:03.199Z,27.50
2018-09-15T13:53:31.668Z,27.10
2018-09-15T13:56:00.112Z,26.90
2018-09-15T13:58:28.587Z,27.50
2018-09-15T14:00:57.036Z,28.00
2018-09-15T14:03:25.508Z,27.60
2018-09-15T14:05:53.960Z,27.00
2018-09-15T14:08:22.439Z,26.50
2018-09-15T14:10:50.902Z,26.20
2018-09-15T14:13:19.422Z,25.70
2018-09-15T14:15:47.896Z,25.60
2018-09-15T14:18:16.348Z,26.10
2018-09-15T14:20:44.815Z,26.60
2018-09-15T14:23:13.264Z,27.10
2018-09-15T14:25:42.184Z,27.50
2018-09-15T14:28:10.628Z,27.80
2018-09-15T14:30:39.091Z,28.20
2018-09-15T14:33:08.183Z,28.50
2018-09-15T14:35:36.943Z,28.70
2018-09-15T14:38:05.396Z,28.50
2018-09-15T14:40:33.872Z,28.80
2018-09-15T14:43:02.331Z,28.90
2018-09-15T14:45:30.784Z,28.70
2018-09-15T14:47:59.311Z,28.40
2018-09-15T14:50:27.725Z,28.00
2018-09-15T14:52:56.194Z,27.40
2018-09-15T14:55:24.651Z,26.80
2018-09-15T14:57:53.111Z,26.40
2018-09-15T15:00:21.567Z,26.10
2018-09-15T15:02:52.047Z,26.00
2018-09-15T15:05:20.515Z,25.90
2018-09-15T15:07:49.662Z,25.60
2018-09-15T15:10:18.163Z,25.40
2018-09-15T15:12:46.643Z,25.30
2018-09-15T15:15:15.135Z,25.30
2018-09-15T15:17:43.883Z,25.50
2018-09-15T15:20:12.352Z,25.60
2018-09-15T15:22:40.948Z,25.80
2018-09-15T15:25:09.426Z,25.90
2018-09-15T15:27:38.208Z,25.90
2018-09-15T15:30:06.960Z,25.60
2018-09-15T15:32:35.645Z,25.50
2018-09-15T15:35:04.132Z,25.40
2018-09-15T15:37:32.931Z,25.20
2018-09-15T15:40:01.340Z,25.10
2018-09-15T15:42:29.824Z,25.00
2018-09-15T15:44:58.267Z,24.80
2018-09-15T15:47:26.730Z,24.60
2018-09-15T15:49:55.172Z,24.70
2018-09-15T15:52:23.653Z,24.70
2018-09-15T15:54:52.119Z,24.60
2018-09-15T15:57:20.591Z,24.50
2018-09-15T15:59:49.043Z,24.50
2018-09-15T16:02:17.500Z,24.60
2018-09-15T16:04:45.972Z,24.60
2018-09-15T16:07:14.424Z,24.60
2018-09-15T16:09:43.181Z,24.40
2018-09-15T16:12:11.643Z,24.20
2018-09-15T16:14:40.145Z,23.80
2018-09-15T16:17:08.625Z,23.80
2018-09-15T16:19:37.136Z,23.80
2018-09-15T16:22:05.696Z,23.80
2018-09-15T16:24:34.167Z,23.70
2018-09-15T16:27:02.623Z,23.90
2018-09-15T16:29:31.116Z,23.70
2018-09-15T16:31:59.564Z,23.60
2018-09-15T16:34:28.028Z,23.60
2018-09-15T16:36:56.467Z,23.60
2018-09-15T16:39:24.929Z,23.60
2018-09-15T16:41:53.380Z,23.60
2018-09-15T16:44:21.851Z,23.60
2018-09-15T16:46:50.316Z,23.70
2018-09-15T16:49:18.794Z,23.70
2018-09-15T16:51:47.250Z,23.60
2018-09-15T16:54:15.700Z,23.60
2018-09-15T16:56:44.182Z,23.60
2018-09-15T16:59:12.623Z,23.60
2018-09-15T17:01:41.092Z,23.50
2018-09-15T17:04:09.539Z,23.50
2018-09-15T17:06:38.047Z,23.40
2018-09-15T17:09:09.036Z,23.30
2018-09-15T17:11:37.535Z,23.20
2018-09-15T17:14:05.983Z,23.20
2018-09-15T17:16:34.494Z,23.00
2018-09-15T17:19:03.027Z,22.90
2018-09-15T17:21:31.475Z,22.80
2018-09-15T17:23:59.952Z,22.70
2018-09-15T17:26:28.391Z,22.50
2018-09-15T17:28:56.895Z,22.40
2018-09-15T17:31:25.419Z,22.30
2018-09-15T17:33:53.847Z,22.20
2018-09-15T17:36:22.286Z,22.00
2018-09-15T17:38:50.879Z,21.90
2018-09-15T17:41:19.384Z,21.80
2018-09-15T17:43:48.016Z,21.70
2018-09-15T17:46:16.451Z,21.70
2018-09-15T17:48:44.923Z,21.60
2018-09-15T17:51:13.399Z,21.50
2018-09-15T17:53:41.853Z,21.40
2018-09-15T17:56:10.327Z,21.30
2018-09-15T17:58:38.771Z,21.20
2018-09-15T18:01:07.300Z,21.10
2018-09-15T18:03:35.814Z,21.10
2018-09-15T18:06:04.280Z,21.00
2018-09-15T18:08:32.724Z,21.00
2018-09-15T18:11:01.196Z,20.90
2018-09-15T18:13:29.640Z,20.80
2018-09-15T18:15:58.088Z,20.70
2018-09-15T18:18:26.555Z,20.70
2018-09-15T18:20:55.003Z,20.60
2018-09-15T18:23:23.480Z,20.60
2018-09-15T18:25:51.959Z,20.50
2018-09-15T18:28:20.423Z,20.40
2018-09-15T18:30:48.868Z,20.30
2018-09-15T18:33:17.347Z,20.20
2018-09-15T18:35:45.869Z,20.20
2018-09-15T18:38:14.252Z,20.10
2018-09-15T18:40:42.723Z,20.00
2018-09-15T18:43:11.176Z,20.00
2018-09-15T18:45:39.660Z,19.90
2018-09-15T18:48:08.112Z,19.90
2018-09-15T18:50:36.645Z,19.80
2018-09-15T18:53:05.093Z,19.70
2018-09-15T18:55:33.586Z,19.60
2018-09-15T18:58:02.027Z,19.60
2018-09-15T19:00:30.532Z,19.40
2018-09-15T19:02:58.966Z,19.30
2018-09-15T19:05:27.415Z,19.30
2018-09-15T19:07:56.255Z,19.20
2018-09-15T19:10:25.415Z,19.20
2018-09-15T19:12:53.919Z,19.20
2018-09-15T19:15:22.392Z,19.10
2018-09-15T19:17:50.903Z,19.00
2018-09-15T19:20:19.364Z,19.00
2018-09-15T19:22:47.843Z,18.90
2018-09-15T19:25:16.295Z,18.90
2018-09-15T19:27:44.759Z,18.70
2018-09-15T19:30:13.207Z,18.60
2018-09-15T19:32:41.738Z,18.60
2018-09-15T19:35:10.143Z,18.40
2018-09-15T19:37:38.591Z,18.30
2018-09-15T19:40:07.094Z,18.30
2018-09-15T19:42:35.532Z,18.30
2018-09-15T19:45:04.053Z,18.20
2018-09-15T19:47:32.507Z,18.20
2018-09-15T19:50:00.972Z,18.10
2018-09-15T19:52:29.460Z,18.10
2018-09-15T19:54:57.895Z,18.00
2018-09-15T19:57:26.339Z,18.00
2018-09-15T19:59:54.796Z,17.90
2018-09-15T20:02:23.259Z,17.80
2018-09-15T20:04:51.766Z,17.70
2018-09-15T20:07:20.195Z,17.70
2018-09-15T20:09:48.643Z,17.60
2018-09-15T20:12:17.104Z,17.60
2018-09-15T20:14:45.540Z,17.50
2018-09-15T20:17:12.863Z,17.50
2018-09-15T20:19:40.175Z,17.40
2018-09-15T20:22:08.638Z,17.40
2018-09-15T20:24:37.170Z,17.30
2018-09-15T20:27:05.585Z,17.30
2018-09-15T20:29:34.053Z,17.20
2018-09-15T20:32:02.504Z,17.10
2018-09-15T20:34:30.987Z,17.10
2018-09-15T20:36:59.431Z,17.00
2018-09-15T20:39:27.912Z,17.00
2018-09-15T20:41:56.433Z,17.00
2018-09-15T20:44:24.912Z,16.90
2018-09-15T20:46:53.383Z,16.80
2018-09-15T20:49:21.828Z,16.80
2018-09-15T20:51:50.327Z,16.80
2018-09-15T20:54:18.784Z,16.60
2018-09-15T20:56:47.247Z,16.40
2018-09-15T20:59:15.760Z,16.30
2018-09-15T21:01:44.220Z,16.30
2018-09-15T21:04:12.772Z,16.30
2018-09-15T21:06:41.227Z,16.30
2018-09-15T21:09:11.191Z,16.30
2018-09-15T21:11:39.688Z,16.20
2018-09-15T21:14:08.157Z,16.20
2018-09-15T21:16:36.595Z,16.20
2018-09-15T21:19:05.080Z,16.10
2018-09-15T21:21:33.527Z,16.10
2018-09-15T21:24:01.999Z,15.90
2018-09-15T21:26:30.447Z,15.90
2018-09-15T21:28:58.911Z,15.90
2018-09-15T21:31:27.343Z,15.80
2018-09-15T21:33:55.779Z,15.80
2018-09-15T21:36:24.235Z,15.70
2018-09-15T21:38:52.696Z,15.70
2018-09-15T21:41:21.164Z,15.70
2018-09-15T21:43:49.611Z,15.70
2018-09-15T21:46:18.189Z,15.60
2018-09-15T21:48:46.563Z,15.60
2018-09-15T21:51:15.036Z,15.50
2018-09-15T21:53:43.505Z,15.50
2018-09-15T21:56:11.999Z,15.50
2018-09-15T21:58:40.477Z,15.50
2018-09-15T22:01:08.955Z,15.50
2018-09-15T22:03:42.563Z,15.50
2018-09-15T22:06:11.004Z,15.50
2018-09-15T22:08:39.491Z,15.40
2018-09-15T22:11:08.017Z,15.40
2018-09-15T22:13:36.904Z,15.30
2018-09-15T22:16:05.331Z,15.30
2018-09-15T22:18:33.835Z,15.20
2018-09-15T22:21:02.376Z,15.10
2018-09-15T22:23:30.804Z,15.10
2018-09-15T22:25:59.315Z,15.00
2018-09-15T22:28:28.312Z,15.00
2018-09-15T22:30:56.899Z,14.90
2018-09-15T22:33:25.347Z,14.80
2018-09-15T22:35:53.803Z,14.80
2018-09-15T22:38:22.284Z,14.80
2018-09-15T22:40:50.819Z,14.80
2018-09-15T22:43:19.269Z,14.70
2018-09-15T22:45:48.333Z,14.70
2018-09-15T22:48:16.876Z,14.80
2018-09-15T22:50:45.414Z,14.80
2018-09-15T22:53:13.968Z,14.70
2018-09-15T22:55:42.420Z,14.70
2018-09-15T22:58:10.892Z,14.70
2018-09-15T23:00:39.343Z,14.70
2018-09-15T23:03:07.837Z,14.60
2018-09-15T23:05:36.287Z,14.60
2018-09-15T23:08:04.778Z,14.60
2018-09-15T23:10:33.223Z,14.50
2018-09-15T23:13:01.688Z,14.40
2018-09-15T23:15:30.143Z,14.30
2018-09-15T23:17:58.599Z,14.30
2018-09-15T23:20:27.072Z,14.20
2018-09-15T23:22:56.863Z,14.20
2018-09-15T23:25:25.429Z,14.20
2018-09-15T23:27:53.976Z,14.00
2018-09-15T23:30:22.455Z,13.90
2018-09-15T23:32:50.895Z,13.90
2018-09-15T23:35:19.359Z,13.80
2018-09-15T23:37:47.820Z,13.80
2018-09-15T23:40:16.292Z,13.70
2018-09-15T23:42:44.731Z,13.70
2018-09-15T23:45:13.180Z,13.70
2018-09-15T23:47:41.656Z,13.70
2018-09-15T23:50:10.131Z,13.70
2018-09-15T23:52:40.896Z,13.70
2018-09-15T23:55:09.539Z,13.70
2018-09-15T23:57:38.028Z,13.60
